sensor_id;sensor_type;location;lat;lon;timestamp;P1;durP1;ratioP1;P2;durP2;ratioP2
11767;SDS011;5941;57.652;12.514;2023-03-19T00:01:04;27.53;;;15.03;;
11767;SDS011;5941;57.652;12.514;2023-03-19T00:03:31;27.07;;;16.23;;
11767;SDS011;5941;57.652;12.514;2023-03-19T00:05:57;28.47;;;14.97;;
11767;SDS011;5941;57.652;12.514;2023-03-19T00:08:23;25.37;;;13.23;;
11767;SDS011;5941;57.652;12.514;2023-03-19T00:10:49;27.77;;;14.83;;
11767;SDS011;5941;57.652;12.514;2023-03-19T00:13:15;21.50;;;13.17;;
11767;SDS011;5941;57.652;12.514;2023-03-19T00:15:41;28.47;;;14.33;;
11767;SDS011;5941;57.652;12.514;2023-03-19T00:18:07;23.43;;;13.87;;
11767;SDS011;5941;57.652;12.514;2023-03-19T00:20:34;25.50;;;13.73;;
11767;SDS011;5941;57.652;12.514;2023-03-19T00:23:00;23.17;;;12.00;;
11767;SDS011;5941;57.652;12.514;2023-03-19T00:25:26;26.17;;;13.03;;
11767;SDS011;5941;57.652;12.514;2023-03-19T00:27:52;26.93;;;13.40;;
11767;SDS011;5941;57.652;12.514;2023-03-19T00:30:19;25.13;;;13.40;;
11767;SDS011;5941;57.652;12.514;2023-03-19T00:32:45;26.20;;;14.00;;
11767;SDS011;5941;57.652;12.514;2023-03-19T00:35:12;25.37;;;13.30;;
11767;SDS011;5941;57.652;12.514;2023-03-19T00:37:38;29.33;;;14.30;;
11767;SDS011;5941;57.652;12.514;2023-03-19T00:40:04;27.07;;;12.67;;
11767;SDS011;5941;57.652;12.514;2023-03-19T00:42:30;28.67;;;14.47;;
11767;SDS011;5941;57.652;12.514;2023-03-19T00:44:56;28.33;;;13.90;;
11767;SDS011;5941;57.652;12.514;2023-03-19T00:47:22;30.07;;;14.87;;
11767;SDS011;5941;57.652;12.514;2023-03-19T00:49:48;26.93;;;15.13;;
11767;SDS011;5941;57.652;12.514;2023-03-19T00:52:14;26.80;;;13.70;;
11767;SDS011;5941;57.652;12.514;2023-03-19T00:54:40;26.27;;;14.37;;
11767;SDS011;5941;57.652;12.514;2023-03-19T00:57:07;25.97;;;13.47;;
11767;SDS011;5941;57.652;12.514;2023-03-19T00:59:33;25.57;;;13.77;;
11767;SDS011;5941;57.652;12.514;2023-03-19T01:01:59;26.27;;;13.40;;
11767;SDS011;5941;57.652;12.514;2023-03-19T01:04:24;24.73;;;13.83;;
11767;SDS011;5941;57.652;12.514;2023-03-19T01:06:50;24.33;;;13.50;;
11767;SDS011;5941;57.652;12.514;2023-03-19T01:09:16;23.97;;;13.20;;
11767;SDS011;5941;57.652;12.514;2023-03-19T01:11:42;23.87;;;12.90;;
11767;SDS011;5941;57.652;12.514;2023-03-19T01:14:08;28.07;;;13.63;;
11767;SDS011;5941;57.652;12.514;2023-03-19T01:16:35;28.27;;;13.97;;
11767;SDS011;5941;57.652;12.514;2023-03-19T01:19:01;26.33;;;13.00;;
11767;SDS011;5941;57.652;12.514;2023-03-19T01:21:27;27.17;;;13.40;;
11767;SDS011;5941;57.652;12.514;2023-03-19T01:23:55;22.67;;;12.43;;
11767;SDS011;5941;57.652;12.514;2023-03-19T01:26:21;19.97;;;11.43;;
11767;SDS011;5941;57.652;12.514;2023-03-19T01:28:47;21.20;;;11.83;;
11767;SDS011;5941;57.652;12.514;2023-03-19T01:31:13;17.30;;;10.70;;
11767;SDS011;5941;57.652;12.514;2023-03-19T01:33:39;20.13;;;12.23;;
11767;SDS011;5941;57.652;12.514;2023-03-19T01:36:06;18.57;;;11.60;;
11767;SDS011;5941;57.652;12.514;2023-03-19T01:38:32;26.60;;;13.33;;
11767;SDS011;5941;57.652;12.514;2023-03-19T01:40:59;27.00;;;13.07;;
11767;SDS011;5941;57.652;12.514;2023-03-19T01:43:26;26.13;;;13.57;;
11767;SDS011;5941;57.652;12.514;2023-03-19T01:45:56;24.60;;;12.97;;
11767;SDS011;5941;57.652;12.514;2023-03-19T01:50:55;21.03;;;12.43;;
11767;SDS011;5941;57.652;12.514;2023-03-19T01:53:23;25.50;;;12.57;;
11767;SDS011;5941;57.652;12.514;2023-03-19T01:55:51;20.70;;;11.10;;
11767;SDS011;5941;57.652;12.514;2023-03-19T01:58:17;19.20;;;10.50;;
11767;SDS011;5941;57.652;12.514;2023-03-19T02:00:43;21.70;;;11.63;;
11767;SDS011;5941;57.652;12.514;2023-03-19T02:03:09;25.13;;;12.03;;
11767;SDS011;5941;57.652;12.514;2023-03-19T02:05:35;20.60;;;10.93;;
11767;SDS011;5941;57.652;12.514;2023-03-19T02:08:04;21.80;;;11.23;;
11767;SDS011;5941;57.652;12.514;2023-03-19T02:10:30;20.23;;;10.90;;
11767;SDS011;5941;57.652;12.514;2023-03-19T02:12:57;23.33;;;12.13;;
11767;SDS011;5941;57.652;12.514;2023-03-19T02:15:22;18.17;;;10.83;;
11767;SDS011;5941;57.652;12.514;2023-03-19T02:17:48;19.97;;;11.00;;
11767;SDS011;5941;57.652;12.514;2023-03-19T02:22:54;20.90;;;9.93;;
11767;SDS011;5941;57.652;12.514;2023-03-19T02:25:26;19.37;;;10.40;;
11767;SDS011;5941;57.652;12.514;2023-03-19T02:27:53;22.67;;;11.53;;
11767;SDS011;5941;57.652;12.514;2023-03-19T02:30:26;22.50;;;11.67;;
11767;SDS011;5941;57.652;12.514;2023-03-19T02:32:52;26.00;;;13.07;;
11767;SDS011;5941;57.652;12.514;2023-03-19T02:35:19;22.77;;;11.47;;
11767;SDS011;5941;57.652;12.514;2023-03-19T02:37:45;24.07;;;13.00;;
11767;SDS011;5941;57.652;12.514;2023-03-19T02:40:19;23.43;;;12.03;;
11767;SDS011;5941;57.652;12.514;2023-03-19T02:42:47;19.27;;;10.90;;
11767;SDS011;5941;57.652;12.514;2023-03-19T02:45:13;20.53;;;11.27;;
11767;SDS011;5941;57.652;12.514;2023-03-19T02:47:39;23.03;;;12.60;;
11767;SDS011;5941;57.652;12.514;2023-03-19T02:50:05;22.70;;;11.50;;
11767;SDS011;5941;57.652;12.514;2023-03-19T02:52:32;21.13;;;11.33;;
11767;SDS011;5941;57.652;12.514;2023-03-19T02:54:57;20.30;;;11.00;;
11767;SDS011;5941;57.652;12.514;2023-03-19T02:57:24;21.63;;;11.83;;
11767;SDS011;5941;57.652;12.514;2023-03-19T02:59:49;22.53;;;11.83;;
11767;SDS011;5941;57.652;12.514;2023-03-19T03:02:15;21.73;;;11.47;;
11767;SDS011;5941;57.652;12.514;2023-03-19T03:04:42;22.27;;;11.70;;
11767;SDS011;5941;57.652;12.514;2023-03-19T03:07:08;21.87;;;11.47;;
11767;SDS011;5941;57.652;12.514;2023-03-19T03:09:34;19.07;;;10.87;;
11767;SDS011;5941;57.652;12.514;2023-03-19T03:12:00;22.53;;;11.80;;
11767;SDS011;5941;57.652;12.514;2023-03-19T03:14:26;20.50;;;10.53;;
11767;SDS011;5941;57.652;12.514;2023-03-19T03:16:52;18.33;;;10.87;;
11767;SDS011;5941;57.652;12.514;2023-03-19T03:19:18;18.53;;;10.30;;
11767;SDS011;5941;57.652;12.514;2023-03-19T03:21:45;19.33;;;10.47;;
11767;SDS011;5941;57.652;12.514;2023-03-19T03:24:11;19.10;;;10.83;;
11767;SDS011;5941;57.652;12.514;2023-03-19T03:26:38;16.13;;;9.17;;
11767;SDS011;5941;57.652;12.514;2023-03-19T03:29:04;20.73;;;10.20;;
11767;SDS011;5941;57.652;12.514;2023-03-19T03:31:30;17.70;;;10.33;;
11767;SDS011;5941;57.652;12.514;2023-03-19T03:33:57;19.07;;;10.20;;
11767;SDS011;5941;57.652;12.514;2023-03-19T03:36:23;18.47;;;10.20;;
11767;SDS011;5941;57.652;12.514;2023-03-19T03:38:49;20.40;;;10.43;;
11767;SDS011;5941;57.652;12.514;2023-03-19T03:41:15;17.43;;;10.03;;
11767;SDS011;5941;57.652;12.514;2023-03-19T03:43:41;20.10;;;10.57;;
11767;SDS011;5941;57.652;12.514;2023-03-19T03:46:07;16.17;;;9.43;;
11767;SDS011;5941;57.652;12.514;2023-03-19T03:48:33;20.73;;;10.23;;
11767;SDS011;5941;57.652;12.514;2023-03-19T03:50:59;20.40;;;10.10;;
11767;SDS011;5941;57.652;12.514;2023-03-19T03:53:27;18.60;;;10.00;;
11767;SDS011;5941;57.652;12.514;2023-03-19T03:55:53;16.77;;;9.67;;
11767;SDS011;5941;57.652;12.514;2023-03-19T03:58:19;20.47;;;9.83;;
11767;SDS011;5941;57.652;12.514;2023-03-19T04:00:45;16.67;;;9.10;;
11767;SDS011;5941;57.652;12.514;2023-03-19T04:03:11;16.13;;;9.20;;
11767;SDS011;5941;57.652;12.514;2023-03-19T04:05:37;12.33;;;8.00;;
11767;SDS011;5941;57.652;12.514;2023-03-19T04:08:04;16.17;;;8.47;;
11767;SDS011;5941;57.652;12.514;2023-03-19T04:10:30;15.23;;;8.53;;
11767;SDS011;5941;57.652;12.514;2023-03-19T04:12:56;14.93;;;8.43;;
11767;SDS011;5941;57.652;12.514;2023-03-19T04:15:22;15.30;;;8.40;;
11767;SDS011;5941;57.652;12.514;2023-03-19T04:17:48;16.00;;;8.33;;
11767;SDS011;5941;57.652;12.514;2023-03-19T04:20:14;15.67;;;8.70;;
11767;SDS011;5941;57.652;12.514;2023-03-19T04:22:42;18.20;;;10.30;;
11767;SDS011;5941;57.652;12.514;2023-03-19T04:25:08;16.77;;;8.50;;
11767;SDS011;5941;57.652;12.514;2023-03-19T04:27:34;14.80;;;7.90;;
11767;SDS011;5941;57.652;12.514;2023-03-19T04:30:00;15.53;;;8.60;;
11767;SDS011;5941;57.652;12.514;2023-03-19T04:32:27;15.03;;;7.93;;
11767;SDS011;5941;57.652;12.514;2023-03-19T04:34:52;13.33;;;7.57;;
11767;SDS011;5941;57.652;12.514;2023-03-19T04:37:18;13.47;;;7.40;;
11767;SDS011;5941;57.652;12.514;2023-03-19T04:39:45;12.77;;;7.23;;
11767;SDS011;5941;57.652;12.514;2023-03-19T04:42:11;13.37;;;7.33;;
11767;SDS011;5941;57.652;12.514;2023-03-19T04:44:37;15.23;;;7.23;;
11767;SDS011;5941;57.652;12.514;2023-03-19T04:47:03;13.37;;;7.93;;
11767;SDS011;5941;57.652;12.514;2023-03-19T04:49:29;12.43;;;7.33;;
11767;SDS011;5941;57.652;12.514;2023-03-19T04:51:56;13.20;;;7.03;;
11767;SDS011;5941;57.652;12.514;2023-03-19T04:54:22;11.07;;;6.40;;
11767;SDS011;5941;57.652;12.514;2023-03-19T04:56:49;10.87;;;6.73;;
11767;SDS011;5941;57.652;12.514;2023-03-19T04:59:15;7.97;;;5.33;;
11767;SDS011;5941;57.652;12.514;2023-03-19T05:01:41;9.10;;;6.17;;
11767;SDS011;5941;57.652;12.514;2023-03-19T05:04:07;9.23;;;5.30;;
11767;SDS011;5941;57.652;12.514;2023-03-19T05:06:33;8.77;;;5.60;;
11767;SDS011;5941;57.652;12.514;2023-03-19T05:09:00;7.43;;;4.77;;
11767;SDS011;5941;57.652;12.514;2023-03-19T05:11:26;7.93;;;5.23;;
11767;SDS011;5941;57.652;12.514;2023-03-19T05:13:52;9.03;;;5.67;;
11767;SDS011;5941;57.652;12.514;2023-03-19T05:16:18;10.50;;;5.40;;
11767;SDS011;5941;57.652;12.514;2023-03-19T05:18:44;7.50;;;4.47;;
11767;SDS011;5941;57.652;12.514;2023-03-19T05:21:10;6.40;;;4.47;;
11767;SDS011;5941;57.652;12.514;2023-03-19T05:23:36;9.70;;;5.17;;
11767;SDS011;5941;57.652;12.514;2023-03-19T05:26:02;10.10;;;5.47;;
11767;SDS011;5941;57.652;12.514;2023-03-19T05:28:28;8.67;;;5.33;;
11767;SDS011;5941;57.652;12.514;2023-03-19T05:30:55;9.50;;;5.80;;
11767;SDS011;5941;57.652;12.514;2023-03-19T05:33:21;6.97;;;5.10;;
11767;SDS011;5941;57.652;12.514;2023-03-19T05:35:47;7.77;;;5.13;;
11767;SDS011;5941;57.652;12.514;2023-03-19T05:38:13;9.57;;;5.93;;
11767;SDS011;5941;57.652;12.514;2023-03-19T05:40:40;10.80;;;5.87;;
11767;SDS011;5941;57.652;12.514;2023-03-19T05:43:06;10.80;;;6.13;;
11767;SDS011;5941;57.652;12.514;2023-03-19T05:45:33;11.90;;;6.23;;
11767;SDS011;5941;57.652;12.514;2023-03-19T05:47:59;9.20;;;5.77;;
11767;SDS011;5941;57.652;12.514;2023-03-19T05:50:25;7.83;;;5.40;;
11767;SDS011;5941;57.652;12.514;2023-03-19T05:52:51;7.30;;;5.03;;
11767;SDS011;5941;57.652;12.514;2023-03-19T05:55:17;8.73;;;5.37;;
11767;SDS011;5941;57.652;12.514;2023-03-19T05:57:43;8.33;;;5.10;;
11767;SDS011;5941;57.652;12.514;2023-03-19T06:00:10;7.37;;;4.90;;
11767;SDS011;5941;57.652;12.514;2023-03-19T06:02:36;8.87;;;5.67;;
11767;SDS011;5941;57.652;12.514;2023-03-19T06:05:02;9.17;;;5.47;;
11767;SDS011;5941;57.652;12.514;2023-03-19T06:07:28;9.57;;;5.67;;
11767;SDS011;5941;57.652;12.514;2023-03-19T06:09:54;8.07;;;5.17;;
11767;SDS011;5941;57.652;12.514;2023-03-19T06:12:20;8.93;;;5.60;;
11767;SDS011;5941;57.652;12.514;2023-03-19T06:14:46;10.07;;;5.70;;
11767;SDS011;5941;57.652;12.514;2023-03-19T06:17:12;9.47;;;5.73;;
11767;SDS011;5941;57.652;12.514;2023-03-19T06:19:38;10.53;;;6.30;;
11767;SDS011;5941;57.652;12.514;2023-03-19T06:22:04;13.17;;;5.90;;
11767;SDS011;5941;57.652;12.514;2023-03-19T06:24:30;12.33;;;5.83;;
11767;SDS011;5941;57.652;12.514;2023-03-19T06:26:56;10.70;;;6.20;;
11767;SDS011;5941;57.652;12.514;2023-03-19T06:29:22;11.00;;;6.10;;
11767;SDS011;5941;57.652;12.514;2023-03-19T06:31:48;13.57;;;5.80;;
11767;SDS011;5941;57.652;12.514;2023-03-19T06:34:14;10.30;;;6.13;;
11767;SDS011;5941;57.652;12.514;2023-03-19T06:36:40;12.93;;;6.83;;
11767;SDS011;5941;57.652;12.514;2023-03-19T06:39:06;9.80;;;5.73;;
11767;SDS011;5941;57.652;12.514;2023-03-19T06:41:32;9.77;;;5.40;;
11767;SDS011;5941;57.652;12.514;2023-03-19T06:43:57;10.00;;;5.30;;
11767;SDS011;5941;57.652;12.514;2023-03-19T06:46:23;8.73;;;5.10;;
11767;SDS011;5941;57.652;12.514;2023-03-19T06:48:49;9.30;;;6.13;;
11767;SDS011;5941;57.652;12.514;2023-03-19T06:51:15;8.63;;;5.53;;
11767;SDS011;5941;57.652;12.514;2023-03-19T06:53:41;11.13;;;6.00;;
11767;SDS011;5941;57.652;12.514;2023-03-19T06:56:07;12.80;;;6.57;;
11767;SDS011;5941;57.652;12.514;2023-03-19T06:58:34;10.70;;;5.57;;
11767;SDS011;5941;57.652;12.514;2023-03-19T07:01:00;9.30;;;5.50;;
11767;SDS011;5941;57.652;12.514;2023-03-19T07:03:26;9.70;;;5.27;;
11767;SDS011;5941;57.652;12.514;2023-03-19T07:05:52;9.47;;;6.30;;
11767;SDS011;5941;57.652;12.514;2023-03-19T07:08:18;11.00;;;6.03;;
11767;SDS011;5941;57.652;12.514;2023-03-19T07:10:44;10.87;;;6.50;;
11767;SDS011;5941;57.652;12.514;2023-03-19T07:13:10;11.20;;;6.57;;
11767;SDS011;5941;57.652;12.514;2023-03-19T07:15:36;10.77;;;6.70;;
11767;SDS011;5941;57.652;12.514;2023-03-19T07:18:01;10.37;;;6.47;;
11767;SDS011;5941;57.652;12.514;2023-03-19T07:20:28;12.67;;;7.90;;
11767;SDS011;5941;57.652;12.514;2023-03-19T07:22:53;12.70;;;6.77;;
11767;SDS011;5941;57.652;12.514;2023-03-19T07:25:19;12.80;;;6.60;;
11767;SDS011;5941;57.652;12.514;2023-03-19T07:27:45;11.63;;;6.57;;
11767;SDS011;5941;57.652;12.514;2023-03-19T07:30:12;11.53;;;6.53;;
11767;SDS011;5941;57.652;12.514;2023-03-19T07:32:38;11.43;;;6.00;;
11767;SDS011;5941;57.652;12.514;2023-03-19T07:35:05;10.97;;;6.77;;
11767;SDS011;5941;57.652;12.514;2023-03-19T07:37:31;10.50;;;6.37;;
11767;SDS011;5941;57.652;12.514;2023-03-19T07:39:57;10.57;;;6.43;;
11767;SDS011;5941;57.652;12.514;2023-03-19T07:42:23;11.30;;;6.47;;
11767;SDS011;5941;57.652;12.514;2023-03-19T07:44:49;10.47;;;5.60;;
11767;SDS011;5941;57.652;12.514;2023-03-19T07:47:15;11.03;;;6.07;;
11767;SDS011;5941;57.652;12.514;2023-03-19T07:49:41;10.57;;;6.03;;
11767;SDS011;5941;57.652;12.514;2023-03-19T07:52:07;10.60;;;5.57;;
11767;SDS011;5941;57.652;12.514;2023-03-19T07:54:33;9.60;;;5.90;;
11767;SDS011;5941;57.652;12.514;2023-03-19T07:56:59;8.10;;;5.30;;
11767;SDS011;5941;57.652;12.514;2023-03-19T07:59:25;8.27;;;4.87;;
11767;SDS011;5941;57.652;12.514;2023-03-19T08:01:51;8.87;;;5.50;;
11767;SDS011;5941;57.652;12.514;2023-03-19T08:04:17;7.47;;;4.63;;
11767;SDS011;5941;57.652;12.514;2023-03-19T08:06:43;9.83;;;5.23;;
11767;SDS011;5941;57.652;12.514;2023-03-19T08:09:09;8.77;;;5.47;;
11767;SDS011;5941;57.652;12.514;2023-03-19T08:11:35;7.77;;;5.07;;
11767;SDS011;5941;57.652;12.514;2023-03-19T08:14:01;7.57;;;4.53;;
11767;SDS011;5941;57.652;12.514;2023-03-19T08:16:27;6.80;;;4.77;;
11767;SDS011;5941;57.652;12.514;2023-03-19T08:18:53;7.67;;;4.37;;
11767;SDS011;5941;57.652;12.514;2023-03-19T08:21:20;7.67;;;4.47;;
11767;SDS011;5941;57.652;12.514;2023-03-19T08:23:46;6.57;;;4.27;;
11767;SDS011;5941;57.652;12.514;2023-03-19T08:26:12;8.00;;;4.70;;
11767;SDS011;5941;57.652;12.514;2023-03-19T08:28:38;6.50;;;4.20;;
11767;SDS011;5941;57.652;12.514;2023-03-19T08:31:08;7.63;;;4.77;;
11767;SDS011;5941;57.652;12.514;2023-03-19T08:33:34;7.43;;;4.80;;
11767;SDS011;5941;57.652;12.514;2023-03-19T08:36:07;6.73;;;4.40;;
11767;SDS011;5941;57.652;12.514;2023-03-19T08:38:33;6.70;;;4.33;;
11767;SDS011;5941;57.652;12.514;2023-03-19T08:40:59;7.63;;;4.10;;
11767;SDS011;5941;57.652;12.514;2023-03-19T08:43:29;7.80;;;4.80;;
11767;SDS011;5941;57.652;12.514;2023-03-19T08:45:55;6.90;;;3.87;;
11767;SDS011;5941;57.652;12.514;2023-03-19T08:48:21;6.03;;;4.30;;
11767;SDS011;5941;57.652;12.514;2023-03-19T08:50:51;6.97;;;3.97;;
11767;SDS011;5941;57.652;12.514;2023-03-19T08:53:17;8.00;;;4.47;;
11767;SDS011;5941;57.652;12.514;2023-03-19T08:55:43;6.90;;;4.10;;
11767;SDS011;5941;57.652;12.514;2023-03-19T08:58:09;6.27;;;4.43;;
11767;SDS011;5941;57.652;12.514;2023-03-19T09:00:35;7.27;;;4.33;;
11767;SDS011;5941;57.652;12.514;2023-03-19T09:03:02;5.73;;;3.53;;
11767;SDS011;5941;57.652;12.514;2023-03-19T09:05:28;5.90;;;3.87;;
11767;SDS011;5941;57.652;12.514;2023-03-19T09:07:53;5.53;;;4.10;;
11767;SDS011;5941;57.652;12.514;2023-03-19T09:10:19;5.50;;;3.73;;
11767;SDS011;5941;57.652;12.514;2023-03-19T09:12:45;5.63;;;3.50;;
11767;SDS011;5941;57.652;12.514;2023-03-19T09:15:11;5.53;;;3.57;;
11767;SDS011;5941;57.652;12.514;2023-03-19T09:17:37;4.80;;;3.57;;
11767;SDS011;5941;57.652;12.514;2023-03-19T09:20:03;5.77;;;3.70;;
11767;SDS011;5941;57.652;12.514;2023-03-19T09:22:31;5.10;;;3.80;;
11767;SDS011;5941;57.652;12.514;2023-03-19T09:24:57;5.03;;;3.53;;
11767;SDS011;5941;57.652;12.514;2023-03-19T09:27:23;4.93;;;3.50;;
11767;SDS011;5941;57.652;12.514;2023-03-19T09:29:49;6.20;;;3.70;;
11767;SDS011;5941;57.652;12.514;2023-03-19T09:32:15;5.83;;;3.93;;
11767;SDS011;5941;57.652;12.514;2023-03-19T09:34:41;4.63;;;3.53;;
11767;SDS011;5941;57.652;12.514;2023-03-19T09:37:07;4.70;;;3.37;;
11767;SDS011;5941;57.652;12.514;2023-03-19T09:39:35;5.40;;;4.10;;
11767;SDS011;5941;57.652;12.514;2023-03-19T09:42:08;5.00;;;3.33;;
11767;SDS011;5941;57.652;12.514;2023-03-19T09:44:36;6.07;;;3.67;;
11767;SDS011;5941;57.652;12.514;2023-03-19T09:47:07;5.50;;;3.67;;
11767;SDS011;5941;57.652;12.514;2023-03-19T09:49:38;3.60;;;2.87;;
11767;SDS011;5941;57.652;12.514;2023-03-19T09:54:46;4.60;;;3.30;;
11767;SDS011;5941;57.652;12.514;2023-03-19T09:57:16;4.53;;;3.10;;
11767;SDS011;5941;57.652;12.514;2023-03-19T09:59:42;5.30;;;3.57;;
11767;SDS011;5941;57.652;12.514;2023-03-19T10:02:16;4.30;;;3.43;;
11767;SDS011;5941;57.652;12.514;2023-03-19T10:05:00;5.70;;;3.50;;
11767;SDS011;5941;57.652;12.514;2023-03-19T10:10:15;5.17;;;3.67;;
11767;SDS011;5941;57.652;12.514;2023-03-19T10:12:52;5.30;;;3.60;;
11767;SDS011;5941;57.652;12.514;2023-03-19T10:15:24;5.57;;;4.10;;
11767;SDS011;5941;57.652;12.514;2023-03-19T10:20:21;4.80;;;3.63;;
11767;SDS011;5941;57.652;12.514;2023-03-19T10:22:50;4.40;;;3.07;;
11767;SDS011;5941;57.652;12.514;2023-03-19T10:25:20;4.77;;;3.60;;
11767;SDS011;5941;57.652;12.514;2023-03-19T10:27:49;4.20;;;3.23;;
11767;SDS011;5941;57.652;12.514;2023-03-19T10:30:18;5.37;;;3.80;;
11767;SDS011;5941;57.652;12.514;2023-03-19T10:32:47;4.90;;;3.60;;
11767;SDS011;5941;57.652;12.514;2023-03-19T10:35:23;4.30;;;3.37;;
11767;SDS011;5941;57.652;12.514;2023-03-19T10:37:53;5.43;;;3.70;;
11767;SDS011;5941;57.652;12.514;2023-03-19T10:40:21;4.63;;;3.20;;
11767;SDS011;5941;57.652;12.514;2023-03-19T10:47:44;4.87;;;3.70;;
11767;SDS011;5941;57.652;12.514;2023-03-19T10:50:17;4.97;;;3.70;;
11767;SDS011;5941;57.652;12.514;2023-03-19T10:52:43;4.30;;;3.27;;
11767;SDS011;5941;57.652;12.514;2023-03-19T10:55:17;5.27;;;3.43;;
11767;SDS011;5941;57.652;12.514;2023-03-19T10:57:44;4.83;;;3.43;;
11767;SDS011;5941;57.652;12.514;2023-03-19T11:00:21;5.30;;;3.37;;
11767;SDS011;5941;57.652;12.514;2023-03-19T11:02:49;4.60;;;3.40;;
11767;SDS011;5941;57.652;12.514;2023-03-19T11:07:56;4.53;;;2.87;;
11767;SDS011;5941;57.652;12.514;2023-03-19T11:10:23;4.23;;;3.00;;
11767;SDS011;5941;57.652;12.514;2023-03-19T11:12:51;3.93;;;3.07;;
11767;SDS011;5941;57.652;12.514;2023-03-19T11:15:22;3.73;;;3.00;;
11767;SDS011;5941;57.652;12.514;2023-03-19T11:17:49;3.57;;;2.60;;
11767;SDS011;5941;57.652;12.514;2023-03-19T11:20:22;3.20;;;2.40;;
11767;SDS011;5941;57.652;12.514;2023-03-19T11:22:51;3.60;;;2.57;;
11767;SDS011;5941;57.652;12.514;2023-03-19T11:25:29;4.47;;;2.97;;
11767;SDS011;5941;57.652;12.514;2023-03-19T11:28:00;3.43;;;2.73;;
11767;SDS011;5941;57.652;12.514;2023-03-19T11:30:31;3.97;;;2.60;;
11767;SDS011;5941;57.652;12.514;2023-03-19T11:35:31;3.63;;;2.73;;
11767;SDS011;5941;57.652;12.514;2023-03-19T11:38:00;3.87;;;2.50;;
11767;SDS011;5941;57.652;12.514;2023-03-19T11:40:32;4.53;;;2.87;;
11767;SDS011;5941;57.652;12.514;2023-03-19T11:46:00;4.40;;;2.90;;
11767;SDS011;5941;57.652;12.514;2023-03-19T11:48:34;3.47;;;2.70;;
11767;SDS011;5941;57.652;12.514;2023-03-19T11:51:08;5.03;;;2.93;;
11767;SDS011;5941;57.652;12.514;2023-03-19T12:01:40;4.87;;;3.23;;
11767;SDS011;5941;57.652;12.514;2023-03-19T12:04:23;3.63;;;3.07;;
11767;SDS011;5941;57.652;12.514;2023-03-19T12:07:04;4.60;;;3.07;;
11767;SDS011;5941;57.652;12.514;2023-03-19T12:24:57;4.97;;;3.80;;
11767;SDS011;5941;57.652;12.514;2023-03-19T12:29:59;4.77;;;3.20;;
11767;SDS011;5941;57.652;12.514;2023-03-19T12:35:03;4.70;;;3.30;;
11767;SDS011;5941;57.652;12.514;2023-03-19T12:42:33;5.77;;;3.90;;
11767;SDS011;5941;57.652;12.514;2023-03-19T12:45:01;6.53;;;3.50;;
11767;SDS011;5941;57.652;12.514;2023-03-19T12:47:30;5.00;;;3.50;;
11767;SDS011;5941;57.652;12.514;2023-03-19T12:50:02;6.07;;;3.57;;
11767;SDS011;5941;57.652;12.514;2023-03-19T12:52:39;3.87;;;3.47;;
11767;SDS011;5941;57.652;12.514;2023-03-19T12:57:36;4.37;;;3.63;;
11767;SDS011;5941;57.652;12.514;2023-03-19T13:02:54;5.57;;;3.90;;
11767;SDS011;5941;57.652;12.514;2023-03-19T13:05:25;6.03;;;3.90;;
11767;SDS011;5941;57.652;12.514;2023-03-19T13:10:27;5.40;;;3.63;;
11767;SDS011;5941;57.652;12.514;2023-03-19T13:12:56;4.40;;;3.40;;
11767;SDS011;5941;57.652;12.514;2023-03-19T13:15:33;6.30;;;4.13;;
11767;SDS011;5941;57.652;12.514;2023-03-19T13:18:10;4.50;;;3.43;;
11767;SDS011;5941;57.652;12.514;2023-03-19T13:23:31;4.10;;;3.37;;
11767;SDS011;5941;57.652;12.514;2023-03-19T13:25:58;4.87;;;3.93;;
11767;SDS011;5941;57.652;12.514;2023-03-19T13:28:26;5.57;;;4.07;;
11767;SDS011;5941;57.652;12.514;2023-03-19T13:30:57;5.50;;;4.10;;
11767;SDS011;5941;57.652;12.514;2023-03-19T13:33:23;5.27;;;4.17;;
11767;SDS011;5941;57.652;12.514;2023-03-19T13:35:49;5.23;;;3.80;;
11767;SDS011;5941;57.652;12.514;2023-03-19T13:38:58;6.07;;;4.20;;
11767;SDS011;5941;57.652;12.514;2023-03-19T13:41:22;5.83;;;4.13;;
11767;SDS011;5941;57.652;12.514;2023-03-19T13:43:51;5.27;;;4.27;;
11767;SDS011;5941;57.652;12.514;2023-03-19T13:53:54;4.73;;;3.93;;
11767;SDS011;5941;57.652;12.514;2023-03-19T13:56:31;5.50;;;4.47;;
11767;SDS011;5941;57.652;12.514;2023-03-19T14:01:42;6.07;;;4.37;;
11767;SDS011;5941;57.652;12.514;2023-03-19T14:06:54;6.27;;;3.93;;
11767;SDS011;5941;57.652;12.514;2023-03-19T14:12:08;5.47;;;3.90;;
11767;SDS011;5941;57.652;12.514;2023-03-19T14:14:39;5.13;;;3.43;;
11767;SDS011;5941;57.652;12.514;2023-03-19T14:17:10;6.07;;;4.33;;
11767;SDS011;5941;57.652;12.514;2023-03-19T14:19:40;5.70;;;4.10;;
11767;SDS011;5941;57.652;12.514;2023-03-19T14:22:08;6.23;;;4.00;;
11767;SDS011;5941;57.652;12.514;2023-03-19T14:24:36;6.33;;;4.20;;
11767;SDS011;5941;57.652;12.514;2023-03-19T14:27:26;5.57;;;4.53;;
11767;SDS011;5941;57.652;12.514;2023-03-19T14:29:49;8.00;;;4.33;;
11767;SDS011;5941;57.652;12.514;2023-03-19T14:32:16;5.67;;;4.30;;
11767;SDS011;5941;57.652;12.514;2023-03-19T14:34:42;5.60;;;4.10;;
11767;SDS011;5941;57.652;12.514;2023-03-19T14:37:22;7.23;;;4.53;;
11767;SDS011;5941;57.652;12.514;2023-03-19T14:42:35;7.80;;;5.60;;
11767;SDS011;5941;57.652;12.514;2023-03-19T14:50:40;7.60;;;5.33;;
11767;SDS011;5941;57.652;12.514;2023-03-19T14:53:32;6.57;;;4.53;;
11767;SDS011;5941;57.652;12.514;2023-03-19T14:56:01;5.97;;;4.90;;
11767;SDS011;5941;57.652;12.514;2023-03-19T14:58:28;8.23;;;5.50;;
11767;SDS011;5941;57.652;12.514;2023-03-19T15:00:54;9.40;;;5.30;;
11767;SDS011;5941;57.652;12.514;2023-03-19T15:05:55;7.63;;;5.50;;
11767;SDS011;5941;57.652;12.514;2023-03-19T15:08:21;8.70;;;6.37;;
11767;SDS011;5941;57.652;12.514;2023-03-19T15:13:34;8.30;;;5.50;;
11767;SDS011;5941;57.652;12.514;2023-03-19T15:18:34;9.87;;;6.40;;
11767;SDS011;5941;57.652;12.514;2023-03-19T15:21:01;10.27;;;6.47;;
11767;SDS011;5941;57.652;12.514;2023-03-19T15:23:27;10.17;;;7.03;;
11767;SDS011;5941;57.652;12.514;2023-03-19T15:26:00;8.77;;;6.33;;
11767;SDS011;5941;57.652;12.514;2023-03-19T15:28:27;11.10;;;6.53;;
11767;SDS011;5941;57.652;12.514;2023-03-19T15:30:55;9.53;;;5.87;;
11767;SDS011;5941;57.652;12.514;2023-03-19T15:33:22;8.00;;;5.93;;
11767;SDS011;5941;57.652;12.514;2023-03-19T15:35:56;8.77;;;6.20;;
11767;SDS011;5941;57.652;12.514;2023-03-19T15:38:23;9.73;;;6.07;;
11767;SDS011;5941;57.652;12.514;2023-03-19T15:40:50;8.13;;;5.87;;
11767;SDS011;5941;57.652;12.514;2023-03-19T15:43:17;9.30;;;6.40;;
11767;SDS011;5941;57.652;12.514;2023-03-19T15:45:46;7.67;;;6.03;;
11767;SDS011;5941;57.652;12.514;2023-03-19T15:50:40;9.53;;;6.20;;
11767;SDS011;5941;57.652;12.514;2023-03-19T15:53:11;7.63;;;5.60;;
11767;SDS011;5941;57.652;12.514;2023-03-19T15:55:38;8.80;;;6.10;;
11767;SDS011;5941;57.652;12.514;2023-03-19T15:58:06;9.50;;;6.43;;
11767;SDS011;5941;57.652;12.514;2023-03-19T16:00:37;9.17;;;5.80;;
11767;SDS011;5941;57.652;12.514;2023-03-19T16:03:04;10.13;;;6.43;;
11767;SDS011;5941;57.652;12.514;2023-03-19T16:05:31;9.20;;;6.20;;
11767;SDS011;5941;57.652;12.514;2023-03-19T16:07:58;9.30;;;5.93;;
11767;SDS011;5941;57.652;12.514;2023-03-19T16:12:55;11.23;;;6.90;;
11767;SDS011;5941;57.652;12.514;2023-03-19T16:17:47;10.00;;;6.27;;
11767;SDS011;5941;57.652;12.514;2023-03-19T16:20:13;8.43;;;6.07;;
11767;SDS011;5941;57.652;12.514;2023-03-19T16:22:39;9.80;;;6.03;;
11767;SDS011;5941;57.652;12.514;2023-03-19T16:25:11;8.93;;;5.37;;
11767;SDS011;5941;57.652;12.514;2023-03-19T16:27:39;8.60;;;5.57;;
11767;SDS011;5941;57.652;12.514;2023-03-19T16:30:25;6.90;;;5.07;;